Time;durP1;ratioP1;P1;durP2;ratioP2;P2;SDS_P1;SDS_P2;PMS_P1;PMS_P2;Temp;Humidity;BMP_temperature;BMP_pressure;BME280_temperature;BME280_humidity;BME280_pressure;Samples;Min_cycle;Max_cycle;Signal;HPM_P1;HPM_P2
2022/05/17 00:00:29;;;;;;;8.15;4.10;;;;;;;;;;6184161;23;20009;-85
2022/05/17 00:02:57;;;;;;;6.80;4.22;;;;;;;;;;6184461;23;20038;-85
2022/05/17 00:05:23;;;;;;;5.78;3.55;;;;;;;;;;6184823;23;20064;-85
2022/05/17 00:07:49;;;;;;;5.88;4.53;;;;;;;;;;6207823;23;20367;-85
2022/05/17 00:10:15;;;;;;;9.15;4.22;;;;;;;;;;6207489;23;20005;-84
2022/05/17 00:12:41;;;;;;;7.35;4.78;;;;;;;;;;6184063;23;20001;-84
2022/05/17 00:15:07;;;;;;;9.90;4.22;;;;;;;;;;6184177;23;19997;-84
2022/05/17 00:17:33;;;;;;;7.35;4.55;;;;;;;;;;6183921;23;20345;-85
2022/05/17 00:19:59;;;;;;;6.78;4.35;;;;;;;;;;6184168;23;20001;-84
2022/05/17 00:22:25;;;;;;;7.50;4.53;;;;;;;;;;6207113;23;20059;-85
2022/05/17 00:24:51;;;;;;;8.90;4.55;;;;;;;;;;6207592;23;20005;-84
2022/05/17 00:27:17;;;;;;;7.50;4.95;;;;;;;;;;6184521;23;20039;-84
2022/05/17 00:29:44;;;;;;;7.50;4.82;;;;;;;;;;6183710;23;19997;-84
2022/05/17 00:32:10;;;;;;;13.38;4.93;;;;;;;;;;6184474;23;20004;-84
2022/05/17 00:34:36;;;;;;;11.18;4.50;;;;;;;;;;6183727;23;20033;-84
2022/05/17 00:37:02;;;;;;;6.43;4.32;;;;;;;;;;6184162;23;20005;-85
2022/05/17 00:39:28;;;;;;;8.02;4.78;;;;;;;;;;6184427;23;20005;-84
2022/05/17 00:41:54;;;;;;;8.23;4.20;;;;;;;;;;6184879;23;20032;-85
2022/05/17 00:47:05;;;;;;;7.82;4.30;;;;;;;;;;6185157;23;20051;-85
2022/05/17 00:49:34;;;;;;;10.27;4.63;;;;;;;;;;6207979;23;20005;-84
2022/05/17 00:52:02;;;;;;;9.30;3.95;;;;;;;;;;6184789;23;20004;-85
2022/05/17 00:54:29;;;;;;;11.07;4.80;;;;;;;;;;6184521;23;20008;-85
2022/05/17 00:57:07;;;;;;;8.00;4.07;;;;;;;;;;6183916;23;20001;-84
2022/05/17 00:59:33;;;;;;;7.22;4.28;;;;;;;;;;6207638;23;20047;-85
2022/05/17 01:01:59;;;;;;;9.20;4.07;;;;;;;;;;6184610;23;20073;-84
2022/05/17 01:04:26;;;;;;;7.55;4.55;;;;;;;;;;6184294;23;20386;-83
2022/05/17 01:07:02;;;;;;;10.65;4.43;;;;;;;;;;6184045;23;20028;-85
2022/05/17 01:09:28;;;;;;;5.65;4.07;;;;;;;;;;6183656;23;20011;-85
2022/05/17 01:11:54;;;;;;;15.88;5.00;;;;;;;;;;6207226;23;20453;-85
2022/05/17 01:17:05;;;;;;;7.25;4.63;;;;;;;;;;6183754;23;20429;-84
2022/05/17 01:19:31;;;;;;;8.70;4.50;;;;;;;;;;6183593;23;20007;-85
2022/05/17 01:21:57;;;;;;;9.45;4.95;;;;;;;;;;6183202;23;20498;-85
2022/05/17 01:24:25;;;;;;;4.68;3.88;;;;;;;;;;6183713;23;20021;-85
2022/05/17 01:26:53;;;;;;;6.65;4.18;;;;;;;;;;6207518;23;20053;-86
2022/05/17 01:29:19;;;;;;;5.88;4.25;;;;;;;;;;6183905;23;20443;-86
2022/05/17 01:31:45;;;;;;;7.38;4.55;;;;;;;;;;6183875;23;20060;-86
2022/05/17 01:34:12;;;;;;;5.93;4.15;;;;;;;;;;6183914;23;20027;-87
2022/05/17 01:36:38;;;;;;;9.10;4.55;;;;;;;;;;6183952;23;20048;-86
2022/05/17 01:39:05;;;;;;;11.90;5.50;;;;;;;;;;6207172;23;20450;-86
2022/05/17 01:41:31;;;;;;;7.70;4.80;;;;;;;;;;6184024;23;20056;-86
2022/05/17 01:43:57;;;;;;;8.32;4.80;;;;;;;;;;6183918;23;20029;-86
2022/05/17 01:46:23;;;;;;;10.18;5.22;;;;;;;;;;6207789;23;20005;-86
2022/05/17 01:48:49;;;;;;;7.80;4.47;;;;;;;;;;6185335;23;20001;-85
2022/05/17 01:51:16;;;;;;;7.32;4.45;;;;;;;;;;6185536;23;20009;-85
2022/05/17 01:53:42;;;;;;;9.10;5.10;;;;;;;;;;6185164;23;20364;-85
2022/05/17 01:56:09;;;;;;;12.05;5.20;;;;;;;;;;6209019;23;20462;-85
2022/05/17 01:58:35;;;;;;;9.02;5.18;;;;;;;;;;6208784;23;20004;-85
2022/05/17 02:01:02;;;;;;;9.88;5.00;;;;;;;;;;6185574;23;20008;-85
2022/05/17 02:03:28;;;;;;;7.32;5.10;;;;;;;;;;6185867;23;19997;-85
2022/05/17 02:05:54;;;;;;;8.32;5.18;;;;;;;;;;6185330;23;20001;-86
2022/05/17 02:08:21;;;;;;;8.80;5.25;;;;;;;;;;6185746;23;20032;-85
2022/05/17 02:10:47;;;;;;;6.78;4.97;;;;;;;;;;6208916;23;20633;-85
2022/05/17 02:13:13;;;;;;;11.90;5.80;;;;;;;;;;6185971;23;20005;-85
2022/05/17 02:15:39;;;;;;;6.18;4.82;;;;;;;;;;6208775;23;20016;-84
2022/05/17 02:18:05;;;;;;;8.43;5.30;;;;;;;;;;6208653;23;20037;-85
2022/05/17 02:20:31;;;;;;;10.77;6.03;;;;;;;;;;6185244;23;20001;-84
2022/05/17 02:23:00;;;;;;;10.27;5.75;;;;;;;;;;6208719;23;20005;-83
2022/05/17 02:25:26;;;;;;;7.80;4.82;;;;;;;;;;6185843;23;20013;-82
2022/05/17 02:27:52;;;;;;;9.43;5.32;;;;;;;;;;6184931;23;20005;-82
2022/05/17 02:30:18;;;;;;;7.43;4.70;;;;;;;;;;6184961;23;20555;-84
2022/05/17 02:32:44;;;;;;;8.55;4.63;;;;;;;;;;6185385;23;20012;-85
2022/05/17 02:35:15;;;;;;;6.80;4.82;;;;;;;;;;6185020;23;20343;-85
2022/05/17 02:37:41;;;;;;;;;;;;;;;;;;6185692;23;20007;-85
2022/05/17 02:40:08;;;;;;;8.85;4.93;;;;;;;;;;6184462;23;19974;-86
2022/05/17 02:42:34;;;;;;;7.85;4.70;;;;;;;;;;6209005;23;19997;-85
2022/05/17 02:45:00;;;;;;;9.13;5.05;;;;;;;;;;6208400;23;20452;-85
2022/05/17 02:47:26;;;;;;;11.00;4.95;;;;;;;;;;6185809;23;20072;-84
2022/05/17 02:49:52;;;;;;;5.63;4.93;;;;;;;;;;6186737;23;20037;-84
2022/05/17 02:52:18;;;;;;;6.45;4.53;;;;;;;;;;6185711;23;20001;-86
2022/05/17 02:54:44;;;;;;;7.60;5.63;;;;;;;;;;6208713;23;20080;-85
2022/05/17 02:57:10;;;;;;;6.75;5.15;;;;;;;;;;6184978;23;20568;-85
2022/05/17 02:59:36;;;;;;;7.93;5.78;;;;;;;;;;6185366;23;20009;-85
2022/05/17 03:02:02;;;;;;;8.40;5.55;;;;;;;;;;6185755;23;20021;-85
2022/05/17 03:04:28;;;;;;;12.02;4.95;;;;;;;;;;6184988;23;20086;-85
2022/05/17 03:06:55;;;;;;;6.47;4.90;;;;;;;;;;6185474;23;20069;-85
2022/05/17 03:09:21;;;;;;;7.97;5.35;;;;;;;;;;6185165;23;20012;-84
2022/05/17 03:11:47;;;;;;;7.80;4.85;;;;;;;;;;6208559;23;20005;-85
2022/05/17 03:14:14;;;;;;;6.70;4.78;;;;;;;;;;6185193;23;20082;-85
2022/05/17 03:16:41;;;;;;;8.63;4.93;;;;;;;;;;6185210;23;20001;-85
2022/05/17 03:19:07;;;;;;;6.38;4.93;;;;;;;;;;6185579;23;19997;-85
2022/05/17 03:21:33;;;;;;;6.28;4.97;;;;;;;;;;6208650;23;20088;-84
2022/05/17 03:23:59;;;;;;;9.18;5.35;;;;;;;;;;6208542;23;20001;-84
2022/05/17 03:26:25;;;;;;;9.48;5.40;;;;;;;;;;6185654;23;20084;-84
2022/05/17 03:28:51;;;;;;;9.02;6.15;;;;;;;;;;6187188;23;20001;-84
2022/05/17 03:31:17;;;;;;;10.75;5.10;;;;;;;;;;6187186;23;20337;-85
2022/05/17 03:33:43;;;;;;;8.40;5.25;;;;;;;;;;6187431;23;20011;-85
2022/05/17 03:36:10;;;;;;;9.75;5.28;;;;;;;;;;6210581;23;20015;-85
2022/05/17 03:38:36;;;;;;;10.10;6.03;;;;;;;;;;6210590;23;20080;-86
2022/05/17 03:41:03;;;;;;;8.60;6.25;;;;;;;;;;6211423;23;20005;-85
2022/05/17 03:43:29;;;;;;;8.75;6.40;;;;;;;;;;6208823;23;20331;-84
2022/05/17 03:45:56;;;;;;;8.93;6.40;;;;;;;;;;6184673;23;20005;-85
2022/05/17 03:48:23;;;;;;;7.97;5.55;;;;;;;;;;6208088;23;20009;-84
2022/05/17 03:50:49;;;;;;;9.50;5.85;;;;;;;;;;6184340;23;20490;-83
2022/05/17 03:53:16;;;;;;;11.30;6.05;;;;;;;;;;6208025;23;20009;-84
2022/05/17 03:55:42;;;;;;;13.55;6.38;;;;;;;;;;6185290;23;20001;-84
2022/05/17 03:58:08;;;;;;;9.27;6.50;;;;;;;;;;6184816;23;20084;-84
2022/05/17 04:00:34;;;;;;;10.57;5.90;;;;;;;;;;6207155;23;20004;-83
2022/05/17 04:03:00;;;;;;;9.15;6.40;;;;;;;;;;6184226;23;20005;-85
2022/05/17 04:05:26;;;;;;;8.15;5.88;;;;;;;;;;6184799;23;20001;-84
2022/05/17 04:07:52;;;;;;;8.77;6.35;;;;;;;;;;6207959;23;20064;-82
2022/05/17 04:10:18;;;;;;;7.78;6.28;;;;;;;;;;6184797;23;20009;-85
2022/05/17 04:12:45;;;;;;;8.05;5.78;;;;;;;;;;6181990;23;20001;-84
2022/05/17 04:15:13;;;;;;;8.07;5.57;;;;;;;;;;6205788;23;20009;-84
2022/05/17 04:17:39;;;;;;;14.23;5.65;;;;;;;;;;6205148;23;20005;-83
2022/05/17 04:20:05;;;;;;;9.98;5.97;;;;;;;;;;6183652;23;20004;-85
2022/05/17 04:22:31;;;;;;;10.20;6.22;;;;;;;;;;6183837;23;20013;-83
2022/05/17 04:24:58;;;;;;;9.50;6.32;;;;;;;;;;6184206;23;20057;-84
2022/05/17 04:27:24;;;;;;;8.88;6.40;;;;;;;;;;6184433;23;20009;-84
2022/05/17 04:29:50;;;;;;;12.75;6.93;;;;;;;;;;6204553;23;20016;-87
2022/05/17 04:32:16;;;;;;;9.00;6.13;;;;;;;;;;6213125;23;19999;-87
2022/05/17 04:34:42;;;;;;;8.13;6.38;;;;;;;;;;6213287;23;19989;-86
2022/05/17 04:37:08;;;;;;;8.68;6.57;;;;;;;;;;6212981;23;20005;-87
2022/05/17 04:39:34;;;;;;;9.70;6.97;;;;;;;;;;6213313;23;20013;-87
2022/05/17 04:42:01;;;;;;;11.15;6.90;;;;;;;;;;6213485;23;20041;-86
2022/05/17 04:44:27;;;;;;;8.07;6.45;;;;;;;;;;6213978;23;19992;-86
2022/05/17 04:46:54;;;;;;;10.80;6.65;;;;;;;;;;6214291;23;20032;-87
2022/05/17 04:49:21;;;;;;;10.52;6.63;;;;;;;;;;6213812;23;19997;-87
2022/05/17 04:51:51;;;;;;;9.98;6.15;;;;;;;;;;6213186;23;20028;-87
2022/05/17 04:54:17;;;;;;;16.38;8.00;;;;;;;;;;6212804;23;20005;-86
2022/05/17 04:56:42;;;;;;;8.98;5.88;;;;;;;;;;6213912;23;20001;-86
2022/05/17 04:59:09;;;;;;;12.20;7.28;;;;;;;;;;6213791;23;20028;-87
2022/05/17 05:01:34;;;;;;;11.85;6.70;;;;;;;;;;6213679;23;19997;-86
2022/05/17 05:04:01;;;;;;;9.07;6.10;;;;;;;;;;6238367;23;20001;-86
2022/05/17 05:06:27;;;;;;;10.52;6.40;;;;;;;;;;6214035;23;20000;-86
2022/05/17 05:08:53;;;;;;;11.30;7.50;;;;;;;;;;6237711;23;19997;-86
2022/05/17 05:11:19;;;;;;;13.10;7.00;;;;;;;;;;6238609;23;20001;-87
2022/05/17 05:13:45;;;;;;;13.00;7.13;;;;;;;;;;6214222;23;19991;-87
2022/05/17 05:16:12;;;;;;;10.13;6.80;;;;;;;;;;6213736;23;19997;-87
2022/05/17 05:18:38;;;;;;;13.95;6.90;;;;;;;;;;6236770;23;19989;-86
2022/05/17 05:21:14;;;;;;;14.55;8.13;;;;;;;;;;6211633;23;20024;-87
2022/05/17 05:23:41;;;;;;;18.77;9.32;;;;;;;;;;6213635;23;20017;-85
2022/05/17 05:26:07;;;;;;;11.77;7.93;;;;;;;;;;6237654;23;19993;-86
2022/05/17 05:28:34;;;;;;;16.00;8.18;;;;;;;;;;6213955;23;20009;-85
2022/05/17 05:31:00;;;;;;;12.10;7.05;;;;;;;;;;6238296;23;20004;-87
2022/05/17 05:33:27;;;;;;;11.32;7.85;;;;;;;;;;6238132;23;19986;-87
2022/05/17 05:35:53;;;;;;;12.50;7.30;;;;;;;;;;6238218;23;20058;-86
2022/05/17 05:38:19;;;;;;;13.55;8.07;;;;;;;;;;6213784;23;20052;-86
2022/05/17 05:40:46;;;;;;;11.45;7.40;;;;;;;;;;6237634;23;20049;-86
2022/05/17 05:43:12;;;;;;;9.85;7.00;;;;;;;;;;6213885;23;20015;-85
2022/05/17 05:45:38;;;;;;;9.57;7.20;;;;;;;;;;6238416;23;20005;-88
2022/05/17 05:48:05;;;;;;;9.55;7.72;;;;;;;;;;6213930;23;19989;-86
2022/05/17 05:50:31;;;;;;;15.65;8.45;;;;;;;;;;6238242;23;19985;-87
2022/05/17 05:53:02;;;;;;;16.70;9.00;;;;;;;;;;6237964;23;20001;-86
2022/05/17 05:55:28;;;;;;;13.15;9.30;;;;;;;;;;6238390;23;20052;-86
2022/05/17 05:57:54;;;;;;;17.75;10.25;;;;;;;;;;6237922;23;20020;-86
2022/05/17 06:00:21;;;;;;;14.98;9.00;;;;;;;;;;6237984;23;20005;-86
2022/05/17 06:02:47;;;;;;;11.38;9.05;;;;;;;;;;6213508;23;19997;-86
2022/05/17 06:05:14;;;;;;;14.57;8.25;;;;;;;;;;6213652;23;20001;-86
2022/05/17 06:07:40;;;;;;;18.13;8.63;;;;;;;;;;6238195;23;20008;-85
2022/05/17 06:10:06;;;;;;;14.55;7.82;;;;;;;;;;6213344;23;20049;-83
2022/05/17 06:12:32;;;;;;;12.35;8.13;;;;;;;;;;6213644;23;20016;-85
2022/05/17 06:14:58;;;;;;;11.90;8.07;;;;;;;;;;6213912;23;19994;-85
2022/05/17 06:17:27;;;;;;;11.05;8.15;;;;;;;;;;6237322;23;20017;-85
2022/05/17 06:19:55;;;;;;;12.27;6.32;;;;;;;;;;6236275;23;20000;-86
2022/05/17 06:22:21;;;;;;;15.02;6.60;;;;;;;;;;6212128;23;20009;-86
2022/05/17 06:24:47;;;;;;;9.55;6.20;;;;;;;;;;6212222;23;20060;-85
2022/05/17 06:27:13;;;;;;;11.55;6.28;;;;;;;;;;6212134;23;20021;-86
2022/05/17 06:29:40;;;;;;;7.85;6.10;;;;;;;;;;6236344;23;20013;-85
2022/05/17 06:32:09;;;;;;;8.45;6.28;;;;;;;;;;6211271;23;20012;-84
2022/05/17 06:34:35;;;;;;;9.18;5.72;;;;;;;;;;6196466;23;20012;-85
2022/05/17 06:37:01;;;;;;;10.02;5.47;;;;;;;;;;6193081;23;20016;-84
2022/05/17 06:39:27;;;;;;;12.45;5.82;;;;;;;;;;6193490;23;20001;-85
2022/05/17 06:41:55;;;;;;;13.73;5.63;;;;;;;;;;6190383;23;19997;-85
2022/05/17 06:44:21;;;;;;;11.63;5.72;;;;;;;;;;6213358;23;20096;-85
2022/05/17 06:46:47;;;;;;;11.25;5.38;;;;;;;;;;6210304;23;20012;-85
2022/05/17 06:49:15;;;;;;;7.70;6.22;;;;;;;;;;6188399;23;20080;-85
2022/05/17 06:51:42;;;;;;;6.72;5.45;;;;;;;;;;6189433;23;20080;-85
2022/05/17 06:54:08;;;;;;;9.20;5.60;;;;;;;;;;6188921;23;20005;-85
2022/05/17 06:56:34;;;;;;;8.85;5.22;;;;;;;;;;6189578;23;20009;-85
2022/05/17 06:59:00;;;;;;;6.68;4.88;;;;;;;;;;6212243;23;20005;-84
2022/05/17 07:01:26;;;;;;;9.25;4.95;;;;;;;;;;6185706;23;20008;-85
2022/05/17 07:03:53;;;;;;;6.90;5.25;;;;;;;;;;6186770;23;20022;-85
2022/05/17 07:06:20;;;;;;;9.25;4.38;;;;;;;;;;6186120;23;20451;-86
2022/05/17 07:08:46;;;;;;;7.38;5.28;;;;;;;;;;6185872;23;20005;-85
2022/05/17 07:14:07;;;;;;;7.30;4.70;;;;;;;;;;6186077;23;20096;-85
2022/05/17 07:16:34;;;;;;;9.30;5.05;;;;;;;;;;6209336;23;20008;-85
2022/05/17 07:19:00;;;;;;;6.50;4.53;;;;;;;;;;6185666;23;20001;-86
2022/05/17 07:21:26;;;;;;;14.48;4.70;;;;;;;;;;6185986;23;20001;-85
2022/05/17 07:23:52;;;;;;;8.10;4.05;;;;;;;;;;6185354;23;20057;-85
2022/05/17 07:26:18;;;;;;;12.07;4.88;;;;;;;;;;6185273;23;20436;-85
2022/05/17 07:28:50;;;;;;;8.93;4.70;;;;;;;;;;6185633;23;20443;-85
2022/05/17 07:31:16;;;;;;;10.48;4.60;;;;;;;;;;6185801;23;20011;-85
2022/05/17 07:33:43;;;;;;;6.97;4.47;;;;;;;;;;6186211;23;20004;-85
2022/05/17 07:36:09;;;;;;;8.73;4.07;;;;;;;;;;6209432;23;20347;-85
2022/05/17 07:38:36;;;;;;;9.80;4.22;;;;;;;;;;6186112;23;20008;-84
2022/05/17 07:41:02;;;;;;;8.07;3.92;;;;;;;;;;6185931;23;19997;-85
2022/05/17 07:43:28;;;;;;;8.75;3.95;;;;;;;;;;6185422;23;20001;-84
2022/05/17 07:45:55;;;;;;;6.60;3.92;;;;;;;;;;6209443;23;20016;-86
2022/05/17 07:48:22;;;;;;;9.20;4.38;;;;;;;;;;6186059;23;20324;-86
2022/05/17 07:50:49;;;;;;;10.63;4.03;;;;;;;;;;6185209;23;20089;-87
2022/05/17 07:53:16;;;;;;;8.55;4.53;;;;;;;;;;6185529;23;20025;-86
2022/05/17 07:55:43;;;;;;;7.25;4.20;;;;;;;;;;6208627;23;20083;-86
2022/05/17 07:58:09;;;;;;;7.40;4.10;;;;;;;;;;6186636;23;19997;-87
2022/05/17 08:00:38;;;;;;;11.02;3.42;;;;;;;;;;6186902;23;20052;-86
2022/05/17 08:03:04;;;;;;;8.43;3.15;;;;;;;;;;6185708;23;20058;-87
2022/05/17 08:05:31;;;;;;;7.03;3.20;;;;;;;;;;6185889;23;20008;-87
2022/05/17 08:07:58;;;;;;;8.07;3.13;;;;;;;;;;6186366;23;20005;-87
2022/05/17 08:10:24;;;;;;;4.80;2.88;;;;;;;;;;6185275;23;20005;-86
2022/05/17 08:12:50;;;;;;;8.80;3.00;;;;;;;;;;6186348;23;20016;-87
2022/05/17 08:15:16;;;;;;;10.10;3.95;;;;;;;;;;6209252;23;20031;-87
2022/05/17 08:17:42;;;;;;;9.27;3.13;;;;;;;;;;6209862;23;20031;-86
2022/05/17 08:20:09;;;;;;;10.35;3.13;;;;;;;;;;6184878;23;20461;-88
2022/05/17 08:22:39;;;;;;;9.30;3.15;;;;;;;;;;6209081;23;20009;-87
2022/05/17 08:27:51;;;;;;;6.40;2.65;;;;;;;;;;6186130;23;20083;-86
2022/05/17 08:30:19;;;;;;;8.68;2.80;;;;;;;;;;6195820;23;20009;-87
2022/05/17 08:35:39;;;;;;;7.88;3.03;;;;;;;;;;6186844;23;20093;-87
2022/05/17 08:38:05;;;;;;;8.38;3.35;;;;;;;;;;6209112;23;20087;-87
2022/05/17 08:40:33;;;;;;;8.98;3.17;;;;;;;;;;6185855;23;20430;-87
2022/05/17 08:43:09;;;;;;;9.35;3.22;;;;;;;;;;6185185;23;20329;-86
2022/05/17 08:45:55;;;;;;;6.70;3.05;;;;;;;;;;6186274;23;20001;-87
2022/05/17 08:48:21;;;;;;;6.63;3.10;;;;;;;;;;6153540;23;20008;-86
2022/05/17 08:50:49;;;;;;;4.93;3.17;;;;;;;;;;6208003;23;20028;-89
2022/05/17 08:53:17;;;;;;;4.22;2.72;;;;;;;;;;6208833;23;20013;-88
2022/05/17 08:55:43;;;;;;;6.45;2.70;;;;;;;;;;6208738;23;20016;-87
2022/05/17 08:58:24;;;;;;;7.45;2.75;;;;;;;;;;6208895;23;20012;-88
2022/05/17 09:00:57;;;;;;;7.68;3.30;;;;;;;;;;6185114;23;20031;-86
2022/05/17 09:03:26;;;;;;;7.15;2.75;;;;;;;;;;6208465;23;20001;-87
2022/05/17 09:05:58;;;;;;;5.93;3.28;;;;;;;;;;6207910;23;20009;-88
2022/05/17 09:08:45;;;;;;;6.28;3.30;;;;;;;;;;6184880;23;20001;-87
2022/05/17 09:11:15;;;;;;;8.20;3.03;;;;;;;;;;6185042;23;20462;-87
2022/05/17 09:13:47;;;;;;;6.63;3.03;;;;;;;;;;6209239;23;20013;-88
2022/05/17 09:16:15;;;;;;;6.93;2.75;;;;;;;;;;6209587;23;20001;-88
2022/05/17 09:18:41;;;;;;;6.43;3.30;;;;;;;;;;6209926;23;20088;-87
2022/05/17 09:21:23;;;;;;;6.13;3.50;;;;;;;;;;6185604;23;20503;-88
2022/05/17 09:23:49;;;;;;;4.10;3.08;;;;;;;;;;6185972;23;20005;-87
2022/05/17 09:26:18;;;;;;;6.03;3.20;;;;;;;;;;6185104;23;20077;-87
2022/05/17 09:28:52;;;;;;;4.95;2.97;;;;;;;;;;6185201;23;20013;-87
2022/05/17 09:31:38;;;;;;;10.43;3.20;;;;;;;;;;6209479;23;20005;-88
2022/05/17 09:34:08;;;;;;;4.50;3.08;;;;;;;;;;6208241;23;19997;-87
2022/05/17 09:36:48;;;;;;;7.80;2.92;;;;;;;;;;6208066;23;20063;-86
2022/05/17 09:39:19;;;;;;;7.28;3.65;;;;;;;;;;6207907;23;20012;-85
2022/05/17 09:41:45;;;;;;;9.80;3.97;;;;;;;;;;6207921;23;20008;-86
2022/05/17 09:44:13;;;;;;;7.55;3.00;;;;;;;;;;6184718;23;20213;-85
2022/05/17 09:46:47;;;;;;;6.45;3.55;;;;;;;;;;6184468;23;20399;-86
2022/05/17 09:54:51;;;;;;;;;;;;;;;;;;6185009;23;20023;-86
2022/05/17 09:57:19;;;;;;;5.15;3.20;;;;;;;;;;6184513;23;19911;-86
2022/05/17 09:59:46;;;;;;;7.15;3.70;;;;;;;;;;6208046;23;20036;-86
2022/05/17 10:02:32;;;;;;;5.97;3.85;;;;;;;;;;6184744;23;20454;-86
2022/05/17 10:04:59;;;;;;;6.63;2.92;;;;;;;;;;6185634;23;19997;-86
2022/05/17 10:07:29;;;;;;;8.98;3.70;;;;;;;;;;6186165;23;20016;-87
2022/05/17 10:09:55;;;;;;;8.90;3.10;;;;;;;;;;6210034;23;20012;-86
2022/05/17 10:12:47;;;;;;;6.43;2.97;;;;;;;;;;6187135;23;20001;-88
2022/05/17 10:15:14;;;;;;;4.80;3.45;;;;;;;;;;6185112;23;20339;-87
2022/05/17 10:17:43;;;;;;;10.35;3.33;;;;;;;;;;6210013;23;20072;-85
2022/05/17 10:20:13;;;;;;;10.70;3.50;;;;;;;;;;6186395;23;20001;-86
2022/05/17 10:22:52;;;;;;;9.00;3.42;;;;;;;;;;6186902;23;20071;-87
2022/05/17 10:25:37;;;;;;;8.13;3.38;;;;;;;;;;6210439;23;20001;-86
2022/05/17 10:28:15;;;;;;;6.00;3.30;;;;;;;;;;6215047;23;20000;-86
2022/05/17 10:30:48;;;;;;;5.93;3.55;;;;;;;;;;6187107;23;20012;-86
2022/05/17 10:33:39;;;;;;;6.45;3.75;;;;;;;;;;6209550;23;20001;-87
2022/05/17 10:36:05;;;;;;;;;;;;;;;;;;6157621;23;20012;-87
2022/05/17 10:38:34;;;;;;;4.78;2.88;;;;;;;;;;6184286;23;19908;-87
2022/05/17 10:41:04;;;;;;;6.15;2.50;;;;;;;;;;6209135;23;20380;-87
2022/05/17 10:43:36;;;;;;;5.50;3.00;;;;;;;;;;6186177;23;20390;-87
2022/05/17 10:46:05;;;;;;;8.50;3.63;;;;;;;;;;6186192;23;20005;-88
2022/05/17 10:48:40;;;;;;;5.68;3.15;;;;;;;;;;6209335;23;20046;-87
2022/05/17 10:51:19;;;;;;;5.05;2.50;;;;;;;;;;6186050;23;20011;-87
2022/05/17 10:54:04;;;;;;;3.88;2.80;;;;;;;;;;6209435;23;20454;-88
2022/05/17 10:56:49;;;;;;;4.75;2.55;;;;;;;;;;6185620;23;20009;-87
2022/05/17 10:59:21;;;;;;;5.97;2.83;;;;;;;;;;6186475;23;20005;-86
2022/05/17 11:01:55;;;;;;;15.82;7.68;;;;;;;;;;6187163;23;19997;-84
2022/05/17 11:04:59;;;;;;;8.18;3.28;;;;;;;;;;6186827;23;20021;-86
2022/05/17 11:07:43;;;;;;;10.02;4.22;;;;;;;;;;6176729;23;20017;-84
2022/05/17 11:10:26;;;;;;;7.03;4.20;;;;;;;;;;6209860;23;20069;-85
2022/05/17 11:13:01;;;;;;;10.05;3.53;;;;;;;;;;6185835;23;20108;-84
2022/05/17 11:15:32;;;;;;;5.82;2.80;;;;;;;;;;6186645;23;20455;-85
2022/05/17 11:18:19;;;;;;;5.70;2.60;;;;;;;;;;6186470;23;20060;-87
2022/05/17 11:20:52;;;;;;;5.75;3.08;;;;;;;;;;6185052;23;20016;-86
2022/05/17 11:23:45;;;;;;;4.40;2.30;;;;;;;;;;6186910;23;20001;-87
2022/05/17 11:26:11;;;;;;;2.85;1.70;;;;;;;;;;6182928;23;20075;-87
2022/05/17 11:28:38;;;;;;;2.97;2.25;;;;;;;;;;6207534;23;20395;-87
2022/05/17 11:31:30;;;;;;;2.83;2.20;;;;;;;;;;6183233;23;20012;-87
2022/05/17 11:34:14;;;;;;;5.00;1.75;;;;;;;;;;6159850;23;20005;-88
2022/05/17 11:36:44;;;;;;;4.22;1.65;;;;;;;;;;6183562;23;20015;-86
2022/05/17 11:39:30;;;;;;;3.75;1.60;;;;;;;;;;6182980;23;20005;-89
2022/05/17 11:42:05;;;;;;;5.07;1.45;;;;;;;;;;6208844;23;20075;-89
2022/05/17 11:44:40;;;;;;;4.70;2.13;;;;;;;;;;6185182;23;20309;-88
2022/05/17 11:47:13;;;;;;;4.60;2.22;;;;;;;;;;6184889;23;20007;-88
2022/05/17 11:49:45;;;;;;;4.40;1.73;;;;;;;;;;6185117;23;20466;-88
2022/05/17 11:52:20;;;;;;;4.80;1.45;;;;;;;;;;6185585;23;20009;-89
2022/05/17 11:54:47;;;;;;;4.00;1.70;;;;;;;;;;6208478;23;20013;-88
2022/05/17 11:57:38;;;;;;;3.08;1.73;;;;;;;;;;6185136;23;20005;-88
2022/05/17 12:00:08;;;;;;;3.55;1.95;;;;;;;;;;6172786;23;20009;-88
2022/05/17 12:02:40;;;;;;;3.53;1.90;;;;;;;;;;6186038;23;19999;-89
2022/05/17 12:05:10;;;;;;;3.20;2.15;;;;;;;;;;6208870;23;20001;-88
2022/05/17 12:07:36;;;;;;;5.00;2.20;;;;;;;;;;6208344;23;20515;-88
2022/05/17 12:10:11;;;;;;;2.42;1.60;;;;;;;;;;6184813;23;20052;-88
2022/05/17 12:12:43;;;;;;;7.28;2.35;;;;;;;;;;6184521;23;20005;-87
2022/05/17 12:15:28;;;;;;;3.15;1.80;;;;;;;;;;6208786;23;20016;-88
2022/05/17 12:18:18;;;;;;;5.88;2.25;;;;;;;;;;6184567;23;20081;-87
2022/05/17 12:21:02;;;;;;;3.22;1.92;;;;;;;;;;6207886;23;20016;-87
2022/05/17 12:23:33;;;;;;;8.15;1.70;;;;;;;;;;6207779;23;20351;-87
2022/05/17 12:26:09;;;;;;;3.97;1.90;;;;;;;;;;6195576;23;19985;-87
2022/05/17 12:28:40;;;;;;;4.07;1.80;;;;;;;;;;6134219;23;1175035;-86
2022/05/17 12:31:28;;;;;;;2.78;1.45;;;;;;;;;;6183477;23;19997;-86
2022/05/17 12:34:28;;;;;;;3.28;1.58;;;;;;;;;;6185871;23;20059;-86
2022/05/17 12:37:15;;;;;;;3.92;1.55;;;;;;;;;;6208572;23;20100;-86
2022/05/17 12:43:03;;;;;;;3.63;1.90;;;;;;;;;;6185271;23;20079;-86
2022/05/17 12:45:30;;;;;;;2.08;1.35;;;;;;;;;;6185145;23;20015;-87
2022/05/17 12:47:58;;;;;;;2.75;1.52;;;;;;;;;;6207923;23;20005;-86
2022/05/17 12:50:25;;;;;;;3.67;1.48;;;;;;;;;;6208214;23;20005;-86
2022/05/17 12:52:53;;;;;;;3.05;1.50;;;;;;;;;;6185609;23;19998;-87
2022/05/17 12:55:19;;;;;;;2.80;1.48;;;;;;;;;;6186183;23;20001;-87
2022/05/17 12:57:48;;;;;;;2.70;1.23;;;;;;;;;;6183724;23;20008;-87
2022/05/17 13:00:14;;;;;;;3.80;1.40;;;;;;;;;;6207686;23;20458;-87
2022/05/17 13:02:46;;;;;;;2.42;1.20;;;;;;;;;;6184991;23;20005;-85
2022/05/17 13:05:33;;;;;;;2.45;1.55;;;;;;;;;;6185287;23;19997;-86
2022/05/17 13:08:10;;;;;;;1.98;1.50;;;;;;;;;;6208032;23;20005;-87
2022/05/17 13:10:38;;;;;;;3.10;1.65;;;;;;;;;;6185702;23;20001;-87
2022/05/17 13:13:14;;;;;;;6.05;1.55;;;;;;;;;;6184782;23;20458;-87
2022/05/17 13:15:41;;;;;;;7.40;1.52;;;;;;;;;;6208294;23;20021;-86
2022/05/17 13:18:13;;;;;;;2.78;1.40;;;;;;;;;;6185534;23;20052;-87
2022/05/17 13:20:39;;;;;;;1.77;1.38;;;;;;;;;;6184577;23;19997;-87
2022/05/17 13:23:20;;;;;;;5.47;1.27;;;;;;;;;;6185108;23;20029;-87
2022/05/17 13:25:47;;;;;;;1.92;1.20;;;;;;;;;;6183637;23;20009;-89
2022/05/17 13:28:23;;;;;;;3.53;1.45;;;;;;;;;;6214263;23;20048;-87
2022/05/17 13:30:49;;;;;;;2.45;0.90;;;;;;;;;;6208482;23;20001;-88
2022/05/17 13:33:32;;;;;;;3.47;1.10;;;;;;;;;;6231537;23;20009;-88
2022/05/17 13:36:06;;;;;;;3.08;1.00;;;;;;;;;;6234654;23;20061;-89
2022/05/17 13:38:33;;;;;;;1.83;1.10;;;;;;;;;;6231386;23;20013;-87
2022/05/17 13:41:01;;;;;;;2.75;1.00;;;;;;;;;;6211077;23;20013;-88
2022/05/17 13:43:50;;;;;;;2.35;1.20;;;;;;;;;;6211608;23;20005;-87
2022/05/17 13:46:20;;;;;;;2.88;1.00;;;;;;;;;;6188577;23;20008;-88
2022/05/17 13:48:49;;;;;;;3.75;1.48;;;;;;;;;;6188994;23;20005;-89
2022/05/17 13:51:35;;;;;;;5.32;1.27;;;;;;;;;;6190253;23;20005;-87
2022/05/17 13:54:04;;;;;;;2.90;1.42;;;;;;;;;;6189408;23;20059;-88
2022/05/17 13:56:32;;;;;;;1.70;1.02;;;;;;;;;;6189317;23;20039;-89
2022/05/17 13:59:00;;;;;;;5.85;1.60;;;;;;;;;;6188746;23;20076;-89
2022/05/17 14:01:32;;;;;;;6.22;1.20;;;;;;;;;;6212194;23;20056;-89
2022/05/17 14:04:04;;;;;;;1.75;1.15;;;;;;;;;;6213695;23;20005;-91
2022/05/17 14:06:41;;;;;;;1.98;1.02;;;;;;;;;;6198530;23;20023;-89
2022/05/17 14:11:55;;;;;;;4.20;0.98;;;;;;;;;;6195321;23;20012;-89
2022/05/17 14:14:23;;;;;;;2.42;1.40;;;;;;;;;;6217193;23;20028;-90
2022/05/17 14:17:00;;;;;;;3.90;1.60;;;;;;;;;;6197103;23;20595;-89
2022/05/17 14:19:26;;;;;;;2.60;1.38;;;;;;;;;;6196662;23;20017;-89
2022/05/17 14:22:08;;;;;;;3.78;0.98;;;;;;;;;;6195689;23;20458;-88
2022/05/17 14:24:35;;;;;;;4.15;1.40;;;;;;;;;;6187776;23;20005;-88
2022/05/17 14:27:02;;;;;;;3.72;0.90;;;;;;;;;;6189976;23;20028;-88
2022/05/17 14:29:44;;;;;;;1.92;1.00;;;;;;;;;;6202669;23;20008;-87
2022/05/17 14:32:12;;;;;;;1.83;0.93;;;;;;;;;;6191416;23;20001;-90
2022/05/17 14:34:39;;;;;;;2.75;1.00;;;;;;;;;;6188367;23;20498;-88
2022/05/17 14:37:05;;;;;;;2.38;1.20;;;;;;;;;;6187174;23;20008;-88
2022/05/17 14:39:32;;;;;;;5.07;1.08;;;;;;;;;;6187321;23;20028;-88
2022/05/17 14:41:59;;;;;;;3.50;1.30;;;;;;;;;;6189394;23;20001;-88
2022/05/17 14:44:44;;;;;;;3.25;1.00;;;;;;;;;;6188609;23;19997;-88
2022/05/17 14:47:12;;;;;;;2.83;1.00;;;;;;;;;;6189581;23;20013;-89
2022/05/17 14:49:39;;;;;;;2.17;0.90;;;;;;;;;;6212491;23;20009;-89
2022/05/17 14:52:06;;;;;;;3.83;1.63;;;;;;;;;;6191066;23;20008;-89
2022/05/17 14:54:32;;;;;;;1.63;0.88;;;;;;;;;;6187437;23;20008;-89
2022/05/17 14:56:58;;;;;;;3.22;0.73;;;;;;;;;;6189646;23;20008;-89
2022/05/17 14:59:24;;;;;;;2.13;1.00;;;;;;;;;;6211879;23;20274;-90
2022/05/17 15:01:51;;;;;;;2.08;1.05;;;;;;;;;;6189051;23;20005;-90
2022/05/17 15:04:19;;;;;;;2.33;0.70;;;;;;;;;;6213824;23;20011;-91
2022/05/17 15:06:49;;;;;;;1.88;0.60;;;;;;;;;;6213865;23;20343;-89
2022/05/17 15:09:16;;;;;;;2.20;1.13;;;;;;;;;;6213379;23;20021;-91
2022/05/17 15:11:42;;;;;;;4.15;1.20;;;;;;;;;;6189588;23;20164;-89
2022/05/17 15:14:08;;;;;;;1.73;1.15;;;;;;;;;;6213080;23;20001;-91
2022/05/17 15:16:34;;;;;;;2.45;0.90;;;;;;;;;;6188547;23;20001;-90
2022/05/17 15:19:01;;;;;;;4.13;1.00;;;;;;;;;;6201592;23;19997;-89